Time;durP1;ratioP1;P1;durP2;ratioP2;P2;SDS_P1;SDS_P2;PMS_P1;PMS_P2;Temp;Humidity;BMP_temperature;BMP_pressure;BME280_temperature;BME280_humidity;BME280_pressure;Samples;Min_cycle;Max_cycle;Signal;HPM_P1;HPM_P2
2021/05/27 00:02:07;;;;;;;;;12.75;12.75;;;;;;;;3724057;38;17840;-57
2021/05/27 00:04:36;;;;;;;;;10.75;10.50;;;;;;;;3724259;37;21001;-56
2021/05/27 00:07:08;;;;;;;;;11.25;9.75;;;;;;;;3724610;38;21116;-56
2021/05/27 00:09:38;;;;;;;;;10.00;10.00;;;;;;;;3724576;37;20976;-55
2021/05/27 00:12:05;;;;;;;;;14.25;14.00;;;;;;;;3724574;38;21133;-57
2021/05/27 00:14:31;;;;;;;;;12.75;12.75;;;;;;;;3724682;38;21154;-57
2021/05/27 00:17:01;;;;;;;;;12.75;12.00;;;;;;;;3724495;37;21154;-55
2021/05/27 00:19:28;;;;;;;;;12.75;12.50;;;;;;;;3724576;37;21115;-56
2021/05/27 00:21:54;;;;;;;;;13.25;13.25;;;;;;;;3724527;37;20995;-57
2021/05/27 00:24:21;;;;;;;;;13.50;12.75;;;;;;;;3724450;38;21099;-56
2021/05/27 00:26:47;;;;;;;;;12.00;11.25;;;;;;;;3723967;38;21139;-56
2021/05/27 00:29:14;;;;;;;;;15.25;14.25;;;;;;;;3724511;37;17846;-56
2021/05/27 00:31:42;;;;;;;;;12.75;12.75;;;;;;;;3724413;38;21131;-55
2021/05/27 00:34:08;;;;;;;;;12.00;12.00;;;;;;;;3723976;38;21077;-57
2021/05/27 00:36:34;;;;;;;;;12.00;12.00;;;;;;;;3724518;37;21063;-56
2021/05/27 00:39:00;;;;;;;;;12.00;12.00;;;;;;;;3724438;38;21116;-56
2021/05/27 00:41:28;;;;;;;;;12.50;12.50;;;;;;;;3724414;37;20967;-56
2021/05/27 00:43:54;;;;;;;;;11.75;11.75;;;;;;;;3724453;38;21140;-56
2021/05/27 00:46:20;;;;;;;;;13.25;13.25;;;;;;;;3724524;38;20540;-56
2021/05/27 00:48:59;;;;;;;;;12.75;11.75;;;;;;;;3724296;38;17815;-57
2021/05/27 00:51:26;;;;;;;;;11.75;11.75;;;;;;;;3724486;38;21108;-57
2021/05/27 00:53:53;;;;;;;;;15.00;14.00;;;;;;;;3724490;37;21128;-56
2021/05/27 00:56:20;;;;;;;;;11.75;11.75;;;;;;;;3724456;38;21088;-57
2021/05/27 00:58:46;;;;;;;;;11.00;10.75;;;;;;;;3724382;38;20858;-56
2021/05/27 01:01:14;;;;;;;;;13.50;12.75;;;;;;;;3724401;38;21042;-55
2021/05/27 01:03:41;;;;;;;;;12.25;12.25;;;;;;;;3724518;38;20970;-57
2021/05/27 01:06:07;;;;;;;;;13.75;12.00;;;;;;;;3724460;38;20864;-57
2021/05/27 01:08:33;;;;;;;;;11.25;10.75;;;;;;;;3724549;37;21055;-56
2021/05/27 01:10:59;;;;;;;;;13.00;13.00;;;;;;;;3724562;38;17779;-56
2021/05/27 01:13:26;;;;;;;;;13.75;13.00;;;;;;;;3724478;37;21071;-57
2021/05/27 01:15:52;;;;;;;;;13.00;13.00;;;;;;;;3724499;37;17763;-56
2021/05/27 01:18:21;;;;;;;;;13.75;13.75;;;;;;;;3724489;37;21069;-56
2021/05/27 01:20:48;;;;;;;;;13.00;13.00;;;;;;;;3724561;38;21031;-56
2021/05/27 01:23:14;;;;;;;;;7.75;7.75;;;;;;;;3724590;38;21092;-56
2021/05/27 01:25:47;;;;;;;;;12.75;12.75;;;;;;;;3724448;37;20798;-55
2021/05/27 01:28:14;;;;;;;;;12.25;12.25;;;;;;;;3724564;38;21082;-56
2021/05/27 01:30:44;;;;;;;;;13.25;13.25;;;;;;;;3724226;37;21037;-56
2021/05/27 01:33:10;;;;;;;;;13.25;12.00;;;;;;;;3724626;37;21039;-55
2021/05/27 01:35:37;;;;;;;;;19.25;17.50;;;;;;;;3724483;37;21002;-56
2021/05/27 01:38:18;;;;;;;;;12.50;12.00;;;;;;;;3724521;37;20904;-56
2021/05/27 01:40:46;;;;;;;;;13.50;12.00;;;;;;;;3724675;38;21027;-56
2021/05/27 01:43:13;;;;;;;;;13.75;13.75;;;;;;;;3724240;38;21053;-56
2021/05/27 01:45:39;;;;;;;;;13.50;12.75;;;;;;;;3724693;38;20866;-56
2021/05/27 01:48:06;;;;;;;;;12.50;11.75;;;;;;;;3724581;38;20849;-56
2021/05/27 01:50:32;;;;;;;;;13.75;13.75;;;;;;;;3724593;37;20834;-57
2021/05/27 01:52:59;;;;;;;;;14.75;13.75;;;;;;;;3724646;37;20881;-56
2021/05/27 01:55:26;;;;;;;;;13.50;12.50;;;;;;;;3724700;37;17706;-57
2021/05/27 01:57:59;;;;;;;;;11.00;11.00;;;;;;;;3724573;38;21012;-59
2021/05/27 02:00:27;;;;;;;;;14.75;14.00;;;;;;;;3724337;38;20980;-57
2021/05/27 02:02:53;;;;;;;;;14.00;13.00;;;;;;;;3724538;38;20871;-56
2021/05/27 02:05:20;;;;;;;;;12.25;12.25;;;;;;;;3724499;38;20975;-56
2021/05/27 02:07:46;;;;;;;;;9.50;8.50;;;;;;;;3724597;38;17703;-56
2021/05/27 02:10:12;;;;;;;;;13.75;12.50;;;;;;;;3724548;37;20715;-58
2021/05/27 02:12:38;;;;;;;;;12.00;12.00;;;;;;;;3724733;37;17694;-56
2021/05/27 02:15:06;;;;;;;;;13.00;12.25;;;;;;;;3724596;37;20984;-59
2021/05/27 02:17:32;;;;;;;;;12.50;11.75;;;;;;;;3724550;38;20946;-57
2021/05/27 02:19:58;;;;;;;;;11.50;8.75;;;;;;;;3724627;38;20956;-56
2021/05/27 02:22:25;;;;;;;;;11.00;11.00;;;;;;;;3724624;37;20692;-55
2021/05/27 02:24:52;;;;;;;;;12.50;12.50;;;;;;;;3724543;37;20928;-55
2021/05/27 02:27:19;;;;;;;;;12.50;12.50;;;;;;;;3724525;38;21001;-55
2021/05/27 02:29:45;;;;;;;;;13.75;13.75;;;;;;;;3724612;38;17682;-55
2021/05/27 02:32:11;;;;;;;;;11.25;11.00;;;;;;;;3724541;37;20801;-57
2021/05/27 02:34:39;;;;;;;;;14.75;13.00;;;;;;;;3724591;38;20732;-56
2021/05/27 02:37:05;;;;;;;;;14.00;13.25;;;;;;;;3724662;38;20776;-56
2021/05/27 02:39:31;;;;;;;;;14.25;13.00;;;;;;;;3724531;37;21756;-55
2021/05/27 02:41:56;;;;;;;;;17.50;17.50;;;;;;;;3724549;37;20773;-55
2021/05/27 02:44:22;;;;;;;;;15.25;15.25;;;;;;;;3724651;37;18639;-57
2021/05/27 02:46:49;;;;;;;;;14.75;14.75;;;;;;;;3724639;38;18650;-56
2021/05/27 02:49:18;;;;;;;;;17.75;17.50;;;;;;;;3724536;38;20796;-56
2021/05/27 02:51:44;;;;;;;;;18.25;18.25;;;;;;;;3724602;37;21776;-56
2021/05/27 02:54:10;;;;;;;;;17.25;16.25;;;;;;;;3724509;37;21739;-56
2021/05/27 02:56:36;;;;;;;;;15.50;14.50;;;;;;;;3724692;37;21784;-56
2021/05/27 02:59:02;;;;;;;;;14.25;14.25;;;;;;;;3724536;38;18643;-58
2021/05/27 03:01:29;;;;;;;;;13.25;13.25;;;;;;;;3724395;37;18651;-56
2021/05/27 03:03:56;;;;;;;;;16.00;15.25;;;;;;;;3724441;38;21728;-57
2021/05/27 03:06:23;;;;;;;;;14.25;14.00;;;;;;;;3724396;37;21733;-58
2021/05/27 03:08:49;;;;;;;;;17.25;16.25;;;;;;;;3724582;38;21730;-58
2021/05/27 03:11:15;;;;;;;;;19.25;18.50;;;;;;;;3724464;37;18635;-57
2021/05/27 03:13:40;;;;;;;;;16.50;15.75;;;;;;;;3724645;38;18615;-57
2021/05/27 03:16:07;;;;;;;;;20.00;18.50;;;;;;;;3724592;37;18604;-57
2021/05/27 03:18:34;;;;;;;;;17.75;17.25;;;;;;;;3724645;38;18598;-57
2021/05/27 03:21:01;;;;;;;;;13.25;13.25;;;;;;;;3724547;38;21735;-59
2021/05/27 03:23:28;;;;;;;;;14.50;14.50;;;;;;;;3724475;38;21700;-56
2021/05/27 03:25:54;;;;;;;;;15.75;15.50;;;;;;;;3724033;37;21698;-57
2021/05/27 03:28:20;;;;;;;;;17.25;16.25;;;;;;;;3724449;38;21702;-57
2021/05/27 03:30:47;;;;;;;;;18.25;18.25;;;;;;;;3724455;37;21748;-57
2021/05/27 03:33:13;;;;;;;;;12.25;12.25;;;;;;;;3724260;38;18567;-55
2021/05/27 03:35:39;;;;;;;;;20.25;18.25;;;;;;;;3724608;37;21633;-57
2021/05/27 03:38:11;;;;;;;;;18.00;18.00;;;;;;;;3724735;37;18575;-57
2021/05/27 03:40:37;;;;;;;;;11.75;11.50;;;;;;;;3724758;37;18590;-57
2021/05/27 03:43:05;;;;;;;;;22.50;22.50;;;;;;;;3724382;37;21615;-56
2021/05/27 03:45:32;;;;;;;;;21.25;20.75;;;;;;;;3724572;38;21712;-56
2021/05/27 03:47:58;;;;;;;;;20.75;19.50;;;;;;;;3724550;37;21685;-56
2021/05/27 03:50:25;;;;;;;;;23.00;22.00;;;;;;;;3724408;37;21670;-56
2021/05/27 03:52:52;;;;;;;;;21.50;20.50;;;;;;;;3724435;38;21663;-56
2021/05/27 03:55:20;;;;;;;;;22.50;21.75;;;;;;;;3724526;38;21681;-56
2021/05/27 03:57:47;;;;;;;;;20.50;20.00;;;;;;;;3724664;37;21679;-56
2021/05/27 04:03:01;;;;;;;;;24.75;23.75;;;;;;;;3724704;37;21609;-56
2021/05/27 04:08:11;;;;;;;;;31.75;30.00;;;;;;;;3724673;38;21582;-57
2021/05/27 04:10:37;;;;;;;;;27.25;26.25;;;;;;;;3724682;37;21611;-55
2021/05/27 04:13:04;;;;;;;;;25.00;25.00;;;;;;;;3724371;37;21599;-57
2021/05/27 04:15:32;;;;;;;;;25.00;23.50;;;;;;;;3724530;37;21616;-57
2021/05/27 04:18:03;;;;;;;;;31.25;29.50;;;;;;;;3724624;38;21618;-57
2021/05/27 04:20:33;;;;;;;;;42.00;37.25;;;;;;;;3724573;38;21589;-56
2021/05/27 04:23:00;;;;;;;;;35.25;33.50;;;;;;;;3724337;37;21615;-56
2021/05/27 04:25:28;;;;;;;;;34.50;31.75;;;;;;;;3724283;37;21598;-56
2021/05/27 04:27:58;;;;;;;;;32.75;31.75;;;;;;;;3724270;37;21546;-57
2021/05/27 04:30:26;;;;;;;;;24.25;23.50;;;;;;;;3724668;37;21607;-57
2021/05/27 04:35:39;;;;;;;;;26.00;25.25;;;;;;;;3724692;37;21563;-56
2021/05/27 04:38:15;;;;;;;;;22.00;21.50;;;;;;;;3724642;38;21632;-58
2021/05/27 04:40:42;;;;;;;;;19.75;19.75;;;;;;;;3724458;38;21615;-58
2021/05/27 04:43:09;;;;;;;;;21.75;21.75;;;;;;;;3724622;37;21617;-58
2021/05/27 04:45:36;;;;;;;;;25.50;25.25;;;;;;;;3724794;37;21616;-58
2021/05/27 04:48:09;;;;;;;;;19.75;19.75;;;;;;;;3724689;38;21619;-56
2021/05/27 04:50:36;;;;;;;;;35.75;32.75;;;;;;;;3724650;37;18482;-57
2021/05/27 04:53:02;;;;;;;;;29.25;29.25;;;;;;;;3724441;37;21551;-57
2021/05/27 04:55:28;;;;;;;;;25.00;23.50;;;;;;;;3724569;37;21565;-57
2021/05/27 04:57:54;;;;;;;;;22.75;21.25;;;;;;;;3724568;37;21769;-56
2021/05/27 05:00:21;;;;;;;;;29.50;27.25;;;;;;;;3724608;37;21587;-56
2021/05/27 05:02:47;;;;;;;;;23.00;22.25;;;;;;;;3724757;38;18468;-56
2021/05/27 05:05:14;;;;;;;;;31.75;30.50;;;;;;;;3724750;37;21565;-57
2021/05/27 05:07:41;;;;;;;;;23.50;23.50;;;;;;;;3724712;37;21532;-57
2021/05/27 05:10:08;;;;;;;;;23.75;23.75;;;;;;;;3724920;37;21592;-56
2021/05/27 05:12:44;;;;;;;;;22.25;20.50;;;;;;;;3724844;37;21598;-57
2021/05/27 05:15:30;;;;;;;;;21.50;21.00;;;;;;;;3724874;37;21512;-57
2021/05/27 05:18:01;;;;;;;;;23.00;23.00;;;;;;;;3726175;38;21592;-56
2021/05/27 05:20:28;;;;;;;;;25.75;25.75;;;;;;;;3726920;38;21547;-57
2021/05/27 05:22:55;;;;;;;;;31.25;30.25;;;;;;;;3724710;37;21581;-56
2021/05/27 05:25:22;;;;;;;;;22.75;22.75;;;;;;;;3725108;37;21469;-56
2021/05/27 05:27:48;;;;;;;;;23.25;23.25;;;;;;;;3725007;37;21541;-57
2021/05/27 05:30:15;;;;;;;;;22.25;22.00;;;;;;;;3724919;37;21589;-57
2021/05/27 05:32:42;;;;;;;;;17.75;17.75;;;;;;;;3724968;37;21597;-58
2021/05/27 05:35:10;;;;;;;;;25.00;25.00;;;;;;;;3724659;37;21570;-58
2021/05/27 05:37:36;;;;;;;;;30.75;30.25;;;;;;;;3724573;37;21820;-56
2021/05/27 05:40:03;;;;;;;;;26.50;26.00;;;;;;;;3724789;38;21502;-57
2021/05/27 05:42:29;;;;;;;;;27.50;27.50;;;;;;;;3724916;38;21561;-57
2021/05/27 05:44:55;;;;;;;;;28.25;27.25;;;;;;;;3724874;38;21478;-56
2021/05/27 05:47:21;;;;;;;;;26.25;25.25;;;;;;;;3724890;37;21503;-57
2021/05/27 05:49:48;;;;;;;;;21.00;21.00;;;;;;;;3724877;37;21465;-56
2021/05/27 05:52:16;;;;;;;;;22.00;21.00;;;;;;;;3724980;37;18411;-56
2021/05/27 05:54:42;;;;;;;;;23.50;22.00;;;;;;;;3724343;38;21544;-56
2021/05/27 05:57:07;;;;;;;;;20.50;20.50;;;;;;;;3724756;38;21502;-57
2021/05/27 05:59:33;;;;;;;;;22.75;22.50;;;;;;;;3724692;38;21508;-56
2021/05/27 06:02:03;;;;;;;;;19.75;19.75;;;;;;;;3724418;38;18396;-55
2021/05/27 06:04:30;;;;;;;;;20.25;20.25;;;;;;;;3724753;37;18383;-56
2021/05/27 06:06:56;;;;;;;;;21.75;21.00;;;;;;;;3724556;37;21508;-56
2021/05/27 06:09:23;;;;;;;;;22.25;22.00;;;;;;;;3724641;37;21484;-57
2021/05/27 06:11:49;;;;;;;;;18.25;17.50;;;;;;;;3724786;38;18402;-57
2021/05/27 06:14:15;;;;;;;;;18.50;18.50;;;;;;;;3724764;37;21589;-56
2021/05/27 06:16:41;;;;;;;;;28.00;27.00;;;;;;;;3724591;38;21507;-56
2021/05/27 06:19:07;;;;;;;;;19.50;19.50;;;;;;;;3724687;37;18379;-56
2021/05/27 06:21:33;;;;;;;;;18.25;18.25;;;;;;;;3724653;37;18379;-55
2021/05/27 06:24:00;;;;;;;;;18.50;18.50;;;;;;;;3724696;37;18349;-57
2021/05/27 06:26:26;;;;;;;;;18.50;18.25;;;;;;;;3724712;38;21484;-55
2021/05/27 06:28:52;;;;;;;;;16.50;16.50;;;;;;;;3724605;38;18345;-56
2021/05/27 06:31:18;;;;;;;;;20.50;20.50;;;;;;;;3724525;38;21552;-57
2021/05/27 06:33:44;;;;;;;;;18.25;18.25;;;;;;;;3724739;38;21450;-55
2021/05/27 06:36:10;;;;;;;;;21.25;21.00;;;;;;;;3724682;37;21492;-56
2021/05/27 06:38:36;;;;;;;;;17.50;17.50;;;;;;;;3724740;37;18353;-56
2021/05/27 06:41:04;;;;;;;;;16.50;16.50;;;;;;;;3724748;37;21473;-56
2021/05/27 06:43:30;;;;;;;;;20.00;18.00;;;;;;;;3724777;37;21452;-56
2021/05/27 06:45:57;;;;;;;;;19.00;18.75;;;;;;;;3724341;37;21152;-56
2021/05/27 06:48:23;;;;;;;;;16.00;16.00;;;;;;;;3724721;38;21631;-56
2021/05/27 06:50:49;;;;;;;;;16.75;16.75;;;;;;;;3724615;37;21670;-56
2021/05/27 06:53:15;;;;;;;;;17.75;17.75;;;;;;;;3724727;37;21637;-56
2021/05/27 06:55:44;;;;;;;;;16.75;16.75;;;;;;;;3724610;37;21657;-56
2021/05/27 06:58:10;;;;;;;;;16.00;14.25;;;;;;;;3724345;37;21461;-56
2021/05/27 07:00:36;;;;;;;;;13.75;13.75;;;;;;;;3724774;37;21637;-56
2021/05/27 07:03:03;;;;;;;;;17.25;17.25;;;;;;;;3724644;37;21629;-56
2021/05/27 07:05:29;;;;;;;;;15.00;15.00;;;;;;;;3724756;37;21633;-58
2021/05/27 07:07:56;;;;;;;;;16.25;15.75;;;;;;;;3724729;38;21624;-57
2021/05/27 07:10:25;;;;;;;;;14.25;14.25;;;;;;;;3724730;38;18323;-59
2021/05/27 07:12:52;;;;;;;;;11.25;11.25;;;;;;;;3724608;37;21615;-58
2021/05/27 07:15:19;;;;;;;;;11.00;11.00;;;;;;;;3724533;38;21566;-56
2021/05/27 07:17:46;;;;;;;;;13.00;12.75;;;;;;;;3724664;38;21596;-56
2021/05/27 07:20:12;;;;;;;;;19.25;16.00;;;;;;;;3724610;37;21665;-58
2021/05/27 07:22:39;;;;;;;;;14.00;14.00;;;;;;;;3724512;37;21599;-58
2021/05/27 07:25:06;;;;;;;;;7.75;7.75;;;;;;;;3724618;37;21597;-58
2021/05/27 07:27:33;;;;;;;;;9.75;9.75;;;;;;;;3724573;37;18263;-57
2021/05/27 07:29:59;;;;;;;;;7.25;6.75;;;;;;;;3724627;38;21556;-58
2021/05/27 07:32:25;;;;;;;;;9.25;7.75;;;;;;;;3724460;37;21465;-58
2021/05/27 07:34:52;;;;;;;;;10.25;9.25;;;;;;;;3724579;38;21342;-58
2021/05/27 07:37:18;;;;;;;;;7.75;7.75;;;;;;;;3724517;38;21521;-57
2021/05/27 07:39:46;;;;;;;;;14.50;14.50;;;;;;;;3724609;37;21550;-57
2021/05/27 07:42:13;;;;;;;;;18.75;17.50;;;;;;;;3724558;38;21573;-58
2021/05/27 07:44:41;;;;;;;;;14.75;12.75;;;;;;;;3724604;38;21372;-56
2021/05/27 07:47:08;;;;;;;;;15.25;15.25;;;;;;;;3724684;38;21590;-58
2021/05/27 07:49:34;;;;;;;;;18.50;16.50;;;;;;;;3724560;37;21397;-59
2021/05/27 07:52:01;;;;;;;;;15.50;15.50;;;;;;;;3724711;37;18226;-57
2021/05/27 07:54:28;;;;;;;;;11.25;11.25;;;;;;;;3724633;38;21395;-58
2021/05/27 07:56:55;;;;;;;;;12.25;12.25;;;;;;;;3724499;37;21496;-56
2021/05/27 07:59:22;;;;;;;;;11.50;11.00;;;;;;;;3724337;37;18255;-57
2021/05/27 08:01:49;;;;;;;;;13.00;13.00;;;;;;;;3724617;38;21517;-57
2021/05/27 08:04:15;;;;;;;;;12.50;10.75;;;;;;;;3724788;37;21542;-55
2021/05/27 08:06:41;;;;;;;;;18.25;18.25;;;;;;;;3724527;38;21494;-57
2021/05/27 08:09:07;;;;;;;;;14.00;13.00;;;;;;;;3724517;37;21342;-58
2021/05/27 08:11:34;;;;;;;;;12.25;12.00;;;;;;;;3724498;37;21374;-57
2021/05/27 08:13:59;;;;;;;;;20.00;20.00;;;;;;;;3724667;37;21556;-58
2021/05/27 08:16:25;;;;;;;;;15.75;15.75;;;;;;;;3724614;37;21344;-56
2021/05/27 08:18:51;;;;;;;;;12.75;12.75;;;;;;;;3724734;38;18210;-57
2021/05/27 08:21:17;;;;;;;;;14.00;13.75;;;;;;;;3724639;38;18210;-57
2021/05/27 08:23:44;;;;;;;;;13.50;13.50;;;;;;;;3724756;37;18211;-58
2021/05/27 08:26:10;;;;;;;;;17.75;17.75;;;;;;;;3724658;37;21500;-57
2021/05/27 08:28:36;;;;;;;;;14.00;14.00;;;;;;;;3724518;38;21313;-57
2021/05/27 08:31:02;;;;;;;;;15.75;15.75;;;;;;;;3724681;37;21317;-57
2021/05/27 08:33:28;;;;;;;;;18.25;17.00;;;;;;;;3724770;37;21330;-59
2021/05/27 08:35:55;;;;;;;;;16.50;16.00;;;;;;;;3724908;37;20980;-57
2021/05/27 08:38:21;;;;;;;;;13.50;13.50;;;;;;;;3724752;38;21532;-58
2021/05/27 08:40:47;;;;;;;;;19.00;19.00;;;;;;;;3724601;38;21292;-58
2021/05/27 08:43:14;;;;;;;;;21.50;20.25;;;;;;;;3724669;37;21292;-58
2021/05/27 08:45:41;;;;;;;;;18.25;18.25;;;;;;;;3724637;38;21285;-57
2021/05/27 08:48:09;;;;;;;;;17.50;17.25;;;;;;;;3724696;38;21248;-58
2021/05/27 08:50:41;;;;;;;;;11.00;11.00;;;;;;;;3724670;38;21284;-57
2021/05/27 08:53:07;;;;;;;;;11.00;11.00;;;;;;;;3724558;38;21498;-57
2021/05/27 08:55:34;;;;;;;;;10.00;9.00;;;;;;;;3724692;37;21471;-56
2021/05/27 08:58:00;;;;;;;;;11.25;11.25;;;;;;;;3724557;38;18176;-56
2021/05/27 09:00:28;;;;;;;;;13.00;11.00;;;;;;;;3724677;38;21404;-57
2021/05/27 09:02:55;;;;;;;;;9.75;9.75;;;;;;;;3724472;38;21426;-56
2021/05/27 09:05:22;;;;;;;;;10.25;10.25;;;;;;;;3724480;38;21330;-57
2021/05/27 09:07:48;;;;;;;;;10.75;9.25;;;;;;;;3724535;37;21422;-57
2021/05/27 09:10:14;;;;;;;;;9.75;9.75;;;;;;;;3724507;38;21438;-57
2021/05/27 09:12:40;;;;;;;;;13.50;12.75;;;;;;;;3724672;37;21310;-58
2021/05/27 09:15:19;;;;;;;;;11.00;11.00;;;;;;;;3724909;38;21427;-56
2021/05/27 09:17:50;;;;;;;;;15.50;14.50;;;;;;;;3724805;38;18103;-56
2021/05/27 09:20:26;;;;;;;;;11.50;11.50;;;;;;;;3724756;38;21420;-58
2021/05/27 09:23:10;;;;;;;;;7.00;7.00;;;;;;;;3724625;38;21433;-57
2021/05/27 09:25:37;;;;;;;;;9.50;9.50;;;;;;;;3724801;38;21136;-57
2021/05/27 09:28:04;;;;;;;;;12.00;12.00;;;;;;;;3724638;37;21385;-58
2021/05/27 09:30:30;;;;;;;;;14.25;13.50;;;;;;;;3724729;37;21368;-58
2021/05/27 09:32:56;;;;;;;;;11.00;11.00;;;;;;;;3724562;37;21419;-58
2021/05/27 09:35:22;;;;;;;;;9.00;9.00;;;;;;;;3724723;38;21364;-57
2021/05/27 09:37:52;;;;;;;;;7.50;7.50;;;;;;;;3724837;37;18089;-59
2021/05/27 09:40:28;;;;;;;;;11.75;11.50;;;;;;;;3724731;38;18083;-58
2021/05/27 09:42:54;;;;;;;;;15.25;14.75;;;;;;;;3724509;38;21370;-58
2021/05/27 09:45:21;;;;;;;;;15.50;15.50;;;;;;;;3724760;37;21406;-57
2021/05/27 09:47:48;;;;;;;;;17.50;17.00;;;;;;;;3724594;38;21172;-59
2021/05/27 09:50:14;;;;;;;;;17.75;17.75;;;;;;;;3724097;38;21236;-60
2021/05/27 09:52:41;;;;;;;;;17.00;17.00;;;;;;;;3724190;38;21179;-58
2021/05/27 09:55:09;;;;;;;;;16.00;15.75;;;;;;;;3724651;37;21186;-57
2021/05/27 09:57:36;;;;;;;;;17.50;16.50;;;;;;;;3724624;37;21216;-59
2021/05/27 10:00:04;;;;;;;;;14.50;14.50;;;;;;;;3724329;38;21371;-58
2021/05/27 10:02:33;;;;;;;;;16.25;16.00;;;;;;;;3724640;37;21390;-58
2021/05/27 10:05:03;;;;;;;;;15.75;15.25;;;;;;;;3724693;38;21375;-58
2021/05/27 10:07:36;;;;;;;;;14.75;14.75;;;;;;;;3725035;37;21395;-58
2021/05/27 10:10:03;;;;;;;;;14.00;14.00;;;;;;;;3724787;37;21365;-59
2021/05/27 10:12:34;;;;;;;;;17.75;17.25;;;;;;;;3724348;38;21356;-58
2021/05/27 10:15:01;;;;;;;;;16.00;16.00;;;;;;;;3724792;37;21178;-59
2021/05/27 10:17:27;;;;;;;;;18.00;18.00;;;;;;;;3724758;37;21170;-58
2021/05/27 10:19:53;;;;;;;;;21.50;21.00;;;;;;;;3724480;37;21342;-58
2021/05/27 10:22:20;;;;;;;;;15.00;13.50;;;;;;;;3724639;37;21148;-57
2021/05/27 10:24:46;;;;;;;;;17.25;17.25;;;;;;;;3724584;38;21177;-58
2021/05/27 10:27:12;;;;;;;;;17.25;17.25;;;;;;;;3724596;37;21165;-59
2021/05/27 10:29:41;;;;;;;;;17.50;17.50;;;;;;;;3725136;38;21140;-58
2021/05/27 10:32:09;;;;;;;;;19.25;19.25;;;;;;;;3725605;38;18006;-58
2021/05/27 10:34:42;;;;;;;;;16.25;16.00;;;;;;;;3724769;38;21332;-58
2021/05/27 10:37:08;;;;;;;;;16.25;16.25;;;;;;;;3724713;38;21338;-57
2021/05/27 10:39:38;;;;;;;;;15.50;15.50;;;;;;;;3724518;38;21338;-58
2021/05/27 10:42:04;;;;;;;;;22.00;21.00;;;;;;;;3724443;38;21332;-57
2021/05/27 10:44:30;;;;;;;;;16.00;16.00;;;;;;;;3724503;38;21125;-57
2021/05/27 10:47:17;;;;;;;;;17.25;16.00;;;;;;;;3724511;37;21308;-59
2021/05/27 10:49:46;;;;;;;;;19.25;19.25;;;;;;;;3724713;37;21326;-60
2021/05/27 10:52:47;;;;;;;;;21.00;21.00;;;;;;;;3724655;37;21109;-59
2021/05/27 10:55:31;;;;;;;;;18.00;18.00;;;;;;;;3724679;38;21125;-56
2021/05/27 10:57:58;;;;;;;;;18.75;18.50;;;;;;;;3724175;37;21167;-59
2021/05/27 11:00:54;;;;;;;;;17.25;16.25;;;;;;;;3724835;38;21307;-57
2021/05/27 11:03:38;;;;;;;;;10.00;10.00;;;;;;;;3724720;38;21314;-57
2021/05/27 11:06:27;;;;;;;;;16.25;16.25;;;;;;;;3724627;37;21043;-58
2021/05/27 11:09:27;;;;;;;;;17.00;17.00;;;;;;;;3724334;38;21142;-58
2021/05/27 11:11:57;;;;;;;;;14.00;14.00;;;;;;;;3724748;37;21163;-59
2021/05/27 11:14:41;;;;;;;;;16.50;15.00;;;;;;;;3724806;37;21294;-58
2021/05/27 11:17:19;;;;;;;;;20.75;20.75;;;;;;;;3725074;38;21140;-58
2021/05/27 11:20:20;;;;;;;;;19.75;18.25;;;;;;;;3724808;38;21301;-57
2021/05/27 11:25:34;;;;;;;;;16.75;16.75;;;;;;;;3724585;37;21255;-59
2021/05/27 11:28:22;;;;;;;;;19.00;18.25;;;;;;;;3724480;37;21247;-59
2021/05/27 11:30:54;;;;;;;;;17.00;16.50;;;;;;;;3730487;38;21290;-58
2021/05/27 11:33:32;;;;;;;;;18.00;17.00;;;;;;;;3732166;38;21166;-59
2021/05/27 11:36:04;;;;;;;;;12.50;12.50;;;;;;;;3733677;38;21064;-58
2021/05/27 11:38:32;;;;;;;;;16.75;16.75;;;;;;;;3726200;38;21048;-60
2021/05/27 11:41:06;;;;;;;;;17.00;17.00;;;;;;;;3724387;38;21250;-59
2021/05/27 11:43:34;;;;;;;;;16.75;16.00;;;;;;;;3724774;37;21241;-58
2021/05/27 11:46:01;;;;;;;;;16.25;15.75;;;;;;;;3725009;37;21333;-59
2021/05/27 11:48:37;;;;;;;;;18.75;18.75;;;;;;;;3724929;38;21229;-60
2021/05/27 11:51:05;;;;;;;;;20.00;19.00;;;;;;;;3724785;38;21067;-57
2021/05/27 11:53:53;;;;;;;;;146.75;141.25;;;;;;;;3724987;38;21085;-59
2021/05/27 11:56:36;;;;;;;;;235.40;225.20;;;;;;;;3724508;37;17923;-58
2021/05/27 11:59:03;;;;;;;;;85.00;77.80;;;;;;;;3724761;37;17929;-57
2021/05/27 12:01:31;;;;;;;;;54.25;45.75;;;;;;;;3724659;37;17925;-57
2021/05/27 12:04:04;;;;;;;;;15.00;15.00;;;;;;;;3724183;37;21086;-57
2021/05/27 12:06:48;;;;;;;;;14.25;14.25;;;;;;;;3724925;37;21213;-59
2021/05/27 12:09:40;;;;;;;;;17.75;15.75;;;;;;;;3724787;37;21221;-59
2021/05/27 12:12:13;;;;;;;;;21.50;21.00;;;;;;;;3725586;37;21242;-57
2021/05/27 12:14:46;;;;;;;;;14.00;14.00;;;;;;;;3726700;38;21011;-57
2021/05/27 12:17:16;;;;;;;;;12.75;12.75;;;;;;;;3724826;37;21199;-57
2021/05/27 12:19:50;;;;;;;;;12.00;12.00;;;;;;;;3724696;37;21199;-56
2021/05/27 12:22:16;;;;;;;;;13.00;13.00;;;;;;;;3724700;38;21203;-61
2021/05/27 12:24:44;;;;;;;;;14.00;14.00;;;;;;;;3724707;38;21215;-58
2021/05/27 12:27:10;;;;;;;;;16.50;15.00;;;;;;;;3724242;38;21275;-58
2021/05/27 12:29:36;;;;;;;;;13.50;13.50;;;;;;;;3724814;38;20701;-57
2021/05/27 12:32:08;;;;;;;;;13.00;13.00;;;;;;;;3724682;38;20731;-57
2021/05/27 12:34:37;;;;;;;;;14.50;14.00;;;;;;;;3724799;38;20680;-57
2021/05/27 12:37:04;;;;;;;;;16.50;16.25;;;;;;;;3724765;38;20712;-61
2021/05/27 12:39:39;;;;;;;;;14.00;14.00;;;;;;;;3724803;37;20604;-56
2021/05/27 12:42:07;;;;;;;;;22.00;21.00;;;;;;;;3724916;37;20620;-57
2021/05/27 12:44:46;;;;;;;;;14.75;14.75;;;;;;;;3724690;37;20599;-58
2021/05/27 12:47:12;;;;;;;;;14.00;13.00;;;;;;;;3724879;38;20664;-57
2021/05/27 12:49:38;;;;;;;;;22.00;18.00;;;;;;;;3724751;37;20652;-58
2021/05/27 12:52:04;;;;;;;;;16.25;15.75;;;;;;;;3724623;37;20669;-58
2021/05/27 12:54:30;;;;;;;;;20.25;20.25;;;;;;;;3724926;37;17801;-58
2021/05/27 12:57:00;;;;;;;;;15.25;15.25;;;;;;;;3724746;37;20567;-57
2021/05/27 12:59:27;;;;;;;;;19.00;19.00;;;;;;;;3724775;38;20654;-58
2021/05/27 13:01:57;;;;;;;;;19.50;17.00;;;;;;;;3724991;37;20568;-57
2021/05/27 13:04:34;;;;;;;;;10.25;9.25;;;;;;;;3724775;37;20635;-58
2021/05/27 13:07:13;;;;;;;;;11.50;11.25;;;;;;;;3724806;38;20541;-57
2021/05/27 13:09:58;;;;;;;;;11.00;11.00;;;;;;;;3724899;38;20609;-57
2021/05/27 13:12:31;;;;;;;;;12.00;12.00;;;;;;;;3724827;38;20581;-58
2021/05/27 13:15:08;;;;;;;;;11.50;11.00;;;;;;;;3724865;37;20605;-56
2021/05/27 13:17:34;;;;;;;;;12.25;12.25;;;;;;;;3725076;38;20616;-57
2021/05/27 13:20:00;;;;;;;;;11.75;11.75;;;;;;;;3724949;38;20615;-57
2021/05/27 13:22:27;;;;;;;;;21.50;21.00;;;;;;;;3724886;38;20649;-58
2021/05/27 13:25:05;;;;;;;;;9.00;9.00;;;;;;;;3724847;37;17781;-58
2021/05/27 13:27:48;;;;;;;;;10.50;10.50;;;;;;;;3724766;38;20563;-59
2021/05/27 13:30:24;;;;;;;;;26.75;25.50;;;;;;;;3724586;37;21069;-58
2021/05/27 13:33:00;;;;;;;;;14.00;14.00;;;;;;;;3724532;37;20944;-58
2021/05/27 13:35:27;;;;;;;;;9.75;9.75;;;;;;;;3724558;38;21280;-57
2021/05/27 13:37:56;;;;;;;;;11.00;11.00;;;;;;;;3724187;38;20828;-58
2021/05/27 13:40:34;;;;;;;;;15.25;15.00;;;;;;;;3724692;38;21085;-57
2021/05/27 13:43:01;;;;;;;;;12.00;12.00;;;;;;;;3724420;37;21103;-56
2021/05/27 13:45:29;;;;;;;;;14.00;14.00;;;;;;;;3724583;38;21109;-57
2021/05/27 13:47:55;;;;;;;;;10.25;10.25;;;;;;;;3724681;38;21128;-58
2021/05/27 13:50:25;;;;;;;;;15.00;14.25;;;;;;;;3724609;37;21042;-57
2021/05/27 13:52:51;;;;;;;;;14.50;14.50;;;;;;;;3724436;37;21129;-58
2021/05/27 13:55:18;;;;;;;;;18.00;18.00;;;;;;;;3723880;38;21096;-58
2021/05/27 13:57:44;;;;;;;;;14.75;14.75;;;;;;;;3723895;37;21105;-55
2021/05/27 14:00:11;;;;;;;;;15.00;15.00;;;;;;;;3724369;37;21106;-56
2021/05/27 14:02:37;;;;;;;;;14.75;14.00;;;;;;;;3724555;37;17773;-56
2021/05/27 14:05:05;;;;;;;;;14.25;14.25;;;;;;;;3724556;37;21095;-56
2021/05/27 14:07:31;;;;;;;;;14.75;14.75;;;;;;;;3724388;38;21084;-56
2021/05/27 14:09:57;;;;;;;;;16.75;16.75;;;;;;;;3724547;37;21058;-56
2021/05/27 14:12:23;;;;;;;;;14.75;13.75;;;;;;;;3724330;37;21065;-56
2021/05/27 14:14:49;;;;;;;;;17.75;17.75;;;;;;;;3724527;37;21065;-56
2021/05/27 14:17:15;;;;;;;;;17.00;17.00;;;;;;;;3724618;37;20922;-56
2021/05/27 14:19:41;;;;;;;;;16.50;16.50;;;;;;;;3724683;37;17722;-56
2021/05/27 14:22:07;;;;;;;;;11.00;11.00;;;;;;;;3725877;38;21066;-56
2021/05/27 14:24:36;;;;;;;;;9.25;9.25;;;;;;;;3724592;37;21023;-57
2021/05/27 14:27:04;;;;;;;;;9.75;9.75;;;;;;;;3724478;37;21047;-56
2021/05/27 14:29:30;;;;;;;;;9.75;9.75;;;;;;;;3724600;37;20904;-56
2021/05/27 14:31:56;;;;;;;;;10.00;10.00;;;;;;;;3724538;37;20902;-58
2021/05/27 14:34:22;;;;;;;;;8.25;8.25;;;;;;;;3724600;37;21029;-57
2021/05/27 14:36:48;;;;;;;;;9.00;9.00;;;;;;;;3724570;38;17706;-56
2021/05/27 14:39:14;;;;;;;;;11.75;11.75;;;;;;;;3724594;37;17703;-57